Time;durP1;ratioP1;P1;durP2;ratioP2;P2;SDS_P1;SDS_P2;PMS_P1;PMS_P2;Temp;Humidity;BMP_temperature;BMP_pressure;BME280_temperature;BME280_humidity;BME280_pressure;Samples;Min_cycle;Max_cycle;Signal;HPM_P1;HPM_P2
2021/08/03 00:01:14;;;;;;;5.27;4.87;;;14.60;99.90;;;;;;5034674;28;20183;-68
2021/08/03 00:03:55;;;;;;;6.60;5.20;;;14.60;99.90;;;;;;5060862;28;20339;-69
2021/08/03 00:06:32;;;;;;;11.40;5.53;;;14.60;99.90;;;;;;5053625;28;20243;-69
2021/08/03 00:09:01;;;;;;;5.53;5.03;;;14.60;99.90;;;;;;5057723;28;20208;-69
2021/08/03 00:11:30;;;;;;;7.47;5.23;;;14.60;99.90;;;;;;5056170;28;21387;-68
2021/08/03 00:13:59;;;;;;;6.17;5.23;;;14.60;99.90;;;;;;5053010;28;20188;-68
2021/08/03 00:16:34;;;;;;;5.80;5.20;;;14.60;99.90;;;;;;5055980;28;20185;-68
2021/08/03 00:19:02;;;;;;;7.63;4.97;;;14.60;99.90;;;;;;5050566;28;20182;-67
2021/08/03 00:21:32;;;;;;;5.53;5.03;;;14.60;99.90;;;;;;5033230;28;20189;-67
2021/08/03 00:24:00;;;;;;;5.90;5.30;;;14.60;99.90;;;;;;5053300;28;20501;-69
2021/08/03 00:26:29;;;;;;;6.93;5.70;;;14.60;99.90;;;;;;5055380;28;20238;-69
2021/08/03 00:28:57;;;;;;;6.43;5.83;;;14.60;99.90;;;;;;5038134;28;20242;-69
2021/08/03 00:31:27;;;;;;;6.50;5.63;;;14.60;99.90;;;;;;5033362;28;21417;-69
2021/08/03 00:33:57;;;;;;;6.87;6.13;;;14.60;99.90;;;;;;5040896;28;20180;-68
2021/08/03 00:36:29;;;;;;;6.33;5.73;;;14.60;99.90;;;;;;5051485;28;20463;-70
2021/08/03 00:38:59;;;;;;;5.70;5.23;;;14.50;99.90;;;;;;5035079;28;20178;-70
2021/08/03 00:41:30;;;;;;;6.10;5.50;;;14.50;99.90;;;;;;5034634;28;20264;-69
2021/08/03 00:43:58;;;;;;;6.67;5.57;;;14.50;99.90;;;;;;5058665;28;20180;-69
2021/08/03 00:46:27;;;;;;;11.13;6.60;;;14.50;99.90;;;;;;5036478;28;20463;-70
2021/08/03 00:48:55;;;;;;;6.43;5.93;;;14.50;99.90;;;;;;5042355;28;20185;-71
2021/08/03 00:51:23;;;;;;;8.33;6.77;;;14.50;99.90;;;;;;5031711;28;20208;-70
2021/08/03 00:53:51;;;;;;;9.70;6.10;;;14.50;99.90;;;;;;5056557;28;20184;-70
2021/08/03 00:56:21;;;;;;;7.40;6.23;;;14.50;99.90;;;;;;5052384;28;20539;-71
2021/08/03 00:58:49;;;;;;;6.77;5.90;;;14.50;99.90;;;;;;5049455;28;20294;-71
2021/08/03 01:01:18;;;;;;;5.77;5.37;;;14.40;99.90;;;;;;5032739;28;20184;-71
2021/08/03 01:03:46;;;;;;;6.97;6.10;;;14.40;99.90;;;;;;5040262;28;20189;-71
2021/08/03 01:06:21;;;;;;;6.33;5.53;;;14.40;99.90;;;;;;5039806;28;20184;-71
2021/08/03 01:08:59;;;;;;;7.87;5.90;;;14.30;99.90;;;;;;5038598;28;20211;-71
2021/08/03 01:11:36;;;;;;;9.33;5.80;;;14.20;99.90;;;;;;5052046;28;20196;-71
2021/08/03 01:14:11;;;;;;;6.27;5.67;;;14.20;99.90;;;;;;5054568;28;20209;-71
2021/08/03 01:16:49;;;;;;;7.83;5.97;;;14.10;99.90;;;;;;5051506;28;20263;-72
2021/08/03 01:19:27;;;;;;;9.60;6.23;;;14.00;99.90;;;;;;5042878;28;20185;-72
2021/08/03 01:22:04;;;;;;;7.70;5.80;;;14.00;99.90;;;;;;5037820;28;20427;-72
2021/08/03 01:24:49;;;;;;;8.17;6.00;;;14.00;99.90;;;;;;5041129;28;20306;-71
2021/08/03 01:27:45;;;;;;;8.73;6.03;;;13.90;99.90;;;;;;5038047;28;20184;-71
2021/08/03 01:30:15;;;;;;;7.63;6.00;;;14.00;99.90;;;;;;5041085;28;20201;-71
2021/08/03 01:32:45;;;;;;;11.37;6.40;;;14.00;99.90;;;;;;5039703;28;20188;-71
2021/08/03 01:35:14;;;;;;;8.07;6.30;;;13.80;99.90;;;;;;5039761;28;20182;-71
2021/08/03 01:37:43;;;;;;;6.93;6.03;;;13.80;99.90;;;;;;5041466;28;20449;-71
2021/08/03 01:40:14;;;;;;;7.23;6.43;;;13.80;99.90;;;;;;5040870;28;20174;-71
2021/08/03 01:42:45;;;;;;;8.23;6.80;;;13.90;99.90;;;;;;5041544;28;20185;-71
2021/08/03 01:45:17;;;;;;;8.50;6.87;;;13.80;99.90;;;;;;5041009;28;20182;-71
2021/08/03 01:47:46;;;;;;;8.53;7.27;;;13.90;99.90;;;;;;5041450;28;20204;-72
2021/08/03 01:50:15;;;;;;;8.07;6.97;;;13.90;99.90;;;;;;5052489;28;20186;-70
2021/08/03 01:52:44;;;;;;;8.93;6.93;;;13.90;99.90;;;;;;5042814;28;20236;-71
2021/08/03 01:55:12;;;;;;;7.70;6.90;;;13.90;99.90;;;;;;5044465;28;20352;-72
2021/08/03 01:57:42;;;;;;;8.70;7.40;;;13.90;99.90;;;;;;5041236;28;20229;-71
2021/08/03 02:00:12;;;;;;;11.97;8.00;;;13.90;99.90;;;;;;5042280;28;20346;-71
2021/08/03 02:02:42;;;;;;;11.90;8.40;;;13.90;99.90;;;;;;5040683;28;20480;-70
2021/08/03 02:05:12;;;;;;;12.10;9.00;;;13.90;99.90;;;;;;5040059;28;20253;-70
2021/08/03 02:07:42;;;;;;;13.70;8.87;;;13.90;99.90;;;;;;5039913;28;20400;-70
2021/08/03 02:10:11;;;;;;;12.00;8.80;;;13.90;99.90;;;;;;5044165;28;20205;-70
2021/08/03 02:12:39;;;;;;;19.73;10.23;;;13.90;99.90;;;;;;5040596;28;20181;-71
2021/08/03 02:15:12;;;;;;;13.93;9.10;;;13.90;99.90;;;;;;5038891;28;20325;-70
2021/08/03 02:17:42;;;;;;;17.07;9.50;;;14.00;99.90;;;;;;5040602;28;20196;-70
2021/08/03 02:20:11;;;;;;;12.97;9.33;;;13.90;99.90;;;;;;5039568;28;20197;-70
2021/08/03 02:22:40;;;;;;;15.53;10.17;;;13.90;99.90;;;;;;5039202;28;20251;-70
2021/08/03 02:25:10;;;;;;;17.37;9.60;;;13.90;99.90;;;;;;5039287;28;20190;-71
2021/08/03 02:27:39;;;;;;;12.50;9.10;;;14.00;99.90;;;;;;5040305;28;20428;-71
2021/08/03 02:30:09;;;;;;;15.13;9.33;;;13.90;99.90;;;;;;5040548;28;20204;-71
2021/08/03 02:32:46;;;;;;;12.77;9.73;;;13.90;99.90;;;;;;5040492;28;20185;-71
2021/08/03 02:35:17;;;;;;;14.63;9.57;;;14.00;99.90;;;;;;5038312;28;20204;-70
2021/08/03 02:37:50;;;;;;;13.03;9.83;;;14.00;99.90;;;;;;5038727;28;20326;-71
2021/08/03 02:40:18;;;;;;;17.87;9.77;;;14.00;99.90;;;;;;5039065;28;20464;-70
2021/08/03 02:42:47;;;;;;;11.67;9.20;;;13.90;99.90;;;;;;5040962;28;20193;-70
2021/08/03 02:45:18;;;;;;;13.67;10.27;;;14.00;99.90;;;;;;5040224;28;20185;-70
2021/08/03 02:47:52;;;;;;;16.40;10.60;;;13.90;99.90;;;;;;5040622;28;20436;-71
2021/08/03 02:50:22;;;;;;;15.47;9.70;;;13.90;99.90;;;;;;5039519;28;20207;-69
2021/08/03 02:52:53;;;;;;;16.93;10.20;;;13.80;99.90;;;;;;5020038;28;20260;-69
2021/08/03 02:55:24;;;;;;;14.37;10.13;;;13.80;99.90;;;;;;5006641;28;20182;-70
2021/08/03 02:57:56;;;;;;;19.00;9.67;;;13.80;99.90;;;;;;5023395;28;20351;-70
2021/08/03 03:00:26;;;;;;;19.73;10.07;;;13.80;99.90;;;;;;5026318;28;20181;-69
2021/08/03 03:02:57;;;;;;;14.97;10.37;;;13.80;99.90;;;;;;5024222;28;20182;-70
2021/08/03 03:05:28;;;;;;;15.80;11.03;;;13.80;99.90;;;;;;5023937;28;20204;-70
2021/08/03 03:08:02;;;;;;;13.93;10.33;;;13.80;99.90;;;;;;5024781;28;20190;-70
2021/08/03 03:10:33;;;;;;;15.17;11.27;;;13.80;99.90;;;;;;5021374;28;20205;-70
2021/08/03 03:13:05;;;;;;;17.03;10.90;;;13.80;99.90;;;;;;5023172;28;20417;-70
2021/08/03 03:15:34;;;;;;;14.30;10.73;;;13.80;99.90;;;;;;5026163;28;20194;-70
2021/08/03 03:18:04;;;;;;;18.50;10.70;;;13.70;99.90;;;;;;5020201;28;20188;-70
2021/08/03 03:20:33;;;;;;;17.33;10.93;;;13.70;99.90;;;;;;5022069;28;20186;-70
2021/08/03 03:23:03;;;;;;;13.33;10.33;;;13.70;99.90;;;;;;5022149;28;20181;-70
2021/08/03 03:25:31;;;;;;;17.80;10.47;;;13.70;99.90;;;;;;5022526;28;20190;-70
2021/08/03 03:28:02;;;;;;;14.17;9.50;;;13.70;99.90;;;;;;5020068;28;20277;-69
2021/08/03 03:30:32;;;;;;;16.20;10.60;;;13.70;99.90;;;;;;5021639;28;20225;-70
2021/08/03 03:33:06;;;;;;;16.70;10.17;;;13.60;99.90;;;;;;5019090;28;20399;-70
2021/08/03 03:35:36;;;;;;;14.90;10.77;;;13.60;99.90;;;;;;5020866;28;20186;-70
2021/08/03 03:38:07;;;;;;;14.60;9.53;;;13.60;99.90;;;;;;5017916;28;20209;-70
2021/08/03 03:40:36;;;;;;;12.87;9.23;;;13.60;99.90;;;;;;5021485;28;20186;-70
2021/08/03 03:43:05;;;;;;;12.37;10.10;;;13.60;99.90;;;;;;5023928;28;20180;-70
2021/08/03 03:45:35;;;;;;;12.80;9.80;;;13.50;99.90;;;;;;5026972;28;20194;-70
2021/08/03 03:48:10;;;;;;;12.37;9.20;;;13.60;99.90;;;;;;5019537;28;20186;-70
2021/08/03 03:50:45;;;;;;;14.37;10.13;;;13.60;99.90;;;;;;5020172;28;20747;-69
2021/08/03 03:53:20;;;;;;;11.23;9.23;;;13.60;99.90;;;;;;5023081;28;20189;-70
2021/08/03 03:55:51;;;;;;;13.47;8.83;;;13.60;99.90;;;;;;5024332;28;20186;-70
2021/08/03 03:58:20;;;;;;;12.53;8.77;;;13.50;99.90;;;;;;5025343;28;20185;-67
2021/08/03 04:00:49;;;;;;;9.50;8.33;;;13.50;99.90;;;;;;5022168;28;20365;-70
2021/08/03 04:03:22;;;;;;;10.63;9.13;;;13.50;99.90;;;;;;5028595;28;20257;-70
2021/08/03 04:05:53;;;;;;;15.47;9.53;;;13.60;99.90;;;;;;5021594;28;20196;-70
2021/08/03 04:08:21;;;;;;;12.67;9.70;;;13.60;99.90;;;;;;5018634;28;20256;-69
2021/08/03 04:10:50;;;;;;;14.77;9.40;;;13.60;99.90;;;;;;5024116;28;20421;-69
2021/08/03 04:13:19;;;;;;;10.87;9.10;;;13.60;99.90;;;;;;5006025;28;20178;-70
2021/08/03 04:15:57;;;;;;;13.93;9.80;;;13.60;99.90;;;;;;4999168;28;20202;-69
2021/08/03 04:19:08;;;;;;;15.47;10.70;;;13.70;99.90;;;;;;5023037;28;20400;-69
2021/08/03 04:21:39;;;;;;;13.57;8.97;;;13.70;99.90;;;;;;5017971;28;20441;-70
2021/08/03 04:24:28;;;;;;;16.00;9.90;;;13.60;99.90;;;;;;5025461;28;20225;-70
2021/08/03 04:27:03;;;;;;;14.20;9.70;;;13.70;99.90;;;;;;5018287;28;20171;-70
2021/08/03 04:30:22;;;;;;;14.27;9.67;;;13.70;99.90;;;;;;5020391;28;20189;-70
2021/08/03 04:32:54;;;;;;;13.37;10.30;;;13.60;99.90;;;;;;5004716;28;20217;-70
2021/08/03 04:35:24;;;;;;;16.50;10.53;;;13.60;99.90;;;;;;5021487;28;20182;-69
2021/08/03 04:37:52;;;;;;;15.23;11.30;;;13.60;99.90;;;;;;5022880;28;20174;-70
2021/08/03 04:40:22;;;;;;;16.60;10.63;;;13.50;99.90;;;;;;5022484;28;20186;-70
2021/08/03 04:42:51;;;;;;;15.03;10.60;;;13.50;99.90;;;;;;5022780;28;20185;-68
2021/08/03 04:45:20;;;;;;;14.57;10.90;;;13.50;99.90;;;;;;5024807;28;20181;-69
2021/08/03 04:47:51;;;;;;;14.63;11.03;;;13.50;99.90;;;;;;5024300;28;20265;-70
2021/08/03 04:50:22;;;;;;;16.83;10.83;;;13.60;99.90;;;;;;5019533;28;20192;-70
2021/08/03 04:52:52;;;;;;;16.07;10.60;;;13.50;99.90;;;;;;5040605;28;20344;-69
2021/08/03 04:55:20;;;;;;;14.27;10.47;;;13.50;99.90;;;;;;5046199;28;20180;-70
2021/08/03 04:57:49;;;;;;;13.20;10.67;;;13.50;99.90;;;;;;5024060;28;20184;-70
2021/08/03 05:00:19;;;;;;;16.20;11.00;;;13.50;99.90;;;;;;5023682;28;20216;-70
2021/08/03 05:02:47;;;;;;;17.43;11.13;;;13.50;99.90;;;;;;5024048;28;20319;-70
2021/08/03 05:05:17;;;;;;;15.23;10.83;;;13.60;99.90;;;;;;5041784;28;20200;-70
2021/08/03 05:07:58;;;;;;;13.13;9.87;;;13.70;99.90;;;;;;5023203;28;20388;-70
2021/08/03 05:10:27;;;;;;;14.00;11.07;;;13.70;99.90;;;;;;5042560;28;20185;-69
2021/08/03 05:12:56;;;;;;;15.17;11.33;;;13.70;99.90;;;;;;5041187;28;20209;-70
2021/08/03 05:15:24;;;;;;;17.00;10.77;;;13.80;99.90;;;;;;5041354;28;20192;-69
2021/08/03 05:17:53;;;;;;;15.07;10.40;;;13.80;99.90;;;;;;5042791;28;20193;-70
2021/08/03 05:20:21;;;;;;;16.10;10.37;;;13.80;99.90;;;;;;5039810;28;20223;-70
2021/08/03 05:22:50;;;;;;;13.90;10.87;;;13.80;99.90;;;;;;5039264;28;20184;-69
2021/08/03 05:25:20;;;;;;;14.77;10.87;;;13.80;99.90;;;;;;5044291;28;20226;-69
2021/08/03 05:27:48;;;;;;;15.53;10.53;;;13.80;99.90;;;;;;5041691;28;20207;-70
2021/08/03 05:30:16;;;;;;;16.30;10.83;;;13.80;99.90;;;;;;5041172;28;20181;-70
2021/08/03 05:32:45;;;;;;;16.57;11.27;;;13.80;99.90;;;;;;5038173;28;20213;-70
2021/08/03 05:35:13;;;;;;;16.77;11.27;;;13.80;99.90;;;;;;5023034;28;20225;-70
2021/08/03 05:37:41;;;;;;;14.53;11.43;;;13.80;99.90;;;;;;5040681;28;20185;-70
2021/08/03 05:40:12;;;;;;;16.50;11.80;;;13.80;99.90;;;;;;5021966;28;20189;-70
2021/08/03 05:42:42;;;;;;;18.13;11.27;;;13.80;99.90;;;;;;5040250;28;20188;-69
2021/08/03 05:45:12;;;;;;;17.57;11.87;;;13.80;99.90;;;;;;5039478;28;20431;-70
2021/08/03 05:47:40;;;;;;;18.20;11.70;;;13.80;99.90;;;;;;5024010;28;20231;-69
2021/08/03 05:50:09;;;;;;;18.00;11.87;;;13.80;99.90;;;;;;5039661;28;20185;-69
2021/08/03 05:52:38;;;;;;;16.37;11.50;;;13.80;99.90;;;;;;5040403;28;20217;-70
2021/08/03 05:55:07;;;;;;;17.57;10.80;;;13.80;99.90;;;;;;5044320;28;20192;-70
2021/08/03 05:57:35;;;;;;;16.83;12.07;;;13.80;99.90;;;;;;5046436;28;20355;-69
2021/08/03 06:00:06;;;;;;;18.57;11.50;;;13.80;99.90;;;;;;5042764;28;20185;-70
2021/08/03 06:02:35;;;;;;;16.27;11.37;;;13.80;99.90;;;;;;5040657;28;20182;-69
2021/08/03 06:05:03;;;;;;;19.53;11.13;;;13.80;99.90;;;;;;5040890;28;20189;-70
2021/08/03 06:07:40;;;;;;;16.57;10.90;;;13.80;99.90;;;;;;5015767;28;20185;-69
2021/08/03 06:10:12;;;;;;;15.90;11.07;;;13.70;99.90;;;;;;5041527;28;20319;-70
2021/08/03 06:12:45;;;;;;;14.77;10.77;;;13.70;99.90;;;;;;5038813;28;20213;-70
2021/08/03 06:15:16;;;;;;;13.20;9.83;;;13.80;99.90;;;;;;5036732;28;20448;-70
2021/08/03 06:17:47;;;;;;;18.07;11.43;;;13.80;99.90;;;;;;5040169;28;20231;-70
2021/08/03 06:20:16;;;;;;;15.73;11.37;;;13.80;99.90;;;;;;5037537;28;20216;-70
2021/08/03 06:22:44;;;;;;;16.10;11.50;;;13.90;99.90;;;;;;5024587;28;20185;-69
2021/08/03 06:25:16;;;;;;;19.90;11.50;;;13.90;99.90;;;;;;5041699;28;20178;-70
2021/08/03 06:27:45;;;;;;;16.07;10.73;;;14.00;99.90;;;;;;5039987;28;20298;-69
2021/08/03 06:30:15;;;;;;;13.67;10.23;;;14.00;99.90;;;;;;5026694;28;20181;-70
2021/08/03 06:32:44;;;;;;;16.27;10.47;;;14.00;99.90;;;;;;5042615;28;20204;-70
2021/08/03 06:35:15;;;;;;;19.03;11.07;;;14.00;99.90;;;;;;5039349;28;20177;-70
2021/08/03 06:37:44;;;;;;;15.60;10.53;;;14.10;99.90;;;;;;5044637;28;20276;-70
2021/08/03 06:40:12;;;;;;;12.60;9.77;;;14.10;99.90;;;;;;5025533;28;20364;-70
2021/08/03 06:42:49;;;;;;;14.40;9.50;;;14.10;99.90;;;;;;5040583;28;20182;-70
2021/08/03 06:45:21;;;;;;;17.57;10.70;;;14.20;99.90;;;;;;5048375;28;20424;-70
2021/08/03 06:48:03;;;;;;;15.70;10.20;;;14.20;99.90;;;;;;5041171;28;20181;-70
2021/08/03 06:50:34;;;;;;;15.53;10.23;;;14.30;99.90;;;;;;5034359;28;20181;-69
2021/08/03 06:53:06;;;;;;;12.57;9.53;;;14.40;99.90;;;;;;5042483;28;20387;-70
2021/08/03 06:55:40;;;;;;;13.33;9.37;;;14.50;99.90;;;;;;5051332;28;20310;-70
2021/08/03 06:58:12;;;;;;;13.10;9.60;;;14.50;99.90;;;;;;5040893;28;20430;-70
2021/08/03 07:00:45;;;;;;;14.50;9.43;;;14.60;99.90;;;;;;5039059;28;20185;-70
2021/08/03 07:03:18;;;;;;;15.23;9.10;;;14.80;99.90;;;;;;5043605;28;20189;-70
2021/08/03 07:05:53;;;;;;;12.23;9.20;;;14.90;99.90;;;;;;5042491;28;20292;-70
2021/08/03 07:08:22;;;;;;;16.43;8.50;;;14.90;99.90;;;;;;5039026;28;20177;-70
2021/08/03 07:10:52;;;;;;;11.77;7.83;;;15.10;99.90;;;;;;5043946;28;20465;-69
2021/08/03 07:13:20;;;;;;;13.20;8.93;;;15.20;99.90;;;;;;5050130;28;20420;-70
2021/08/03 07:15:53;;;;;;;14.23;8.63;;;15.30;99.90;;;;;;5042098;28;20186;-69
2021/08/03 07:18:22;;;;;;;10.10;8.07;;;15.40;99.90;;;;;;5038722;28;20182;-69
2021/08/03 07:20:51;;;;;;;12.80;8.60;;;15.50;99.90;;;;;;5041888;28;20181;-70
2021/08/03 07:23:20;;;;;;;9.33;8.07;;;15.50;99.90;;;;;;5044102;28;20187;-70
2021/08/03 07:25:50;;;;;;;10.00;7.77;;;15.60;99.90;;;;;;5048968;28;20265;-69
2021/08/03 07:28:18;;;;;;;9.60;7.70;;;15.70;99.90;;;;;;5051848;28;20191;-70
2021/08/03 07:30:47;;;;;;;12.77;8.67;;;15.80;99.90;;;;;;5048775;28;20196;-70
2021/08/03 07:33:19;;;;;;;10.50;7.30;;;15.80;99.90;;;;;;5046998;28;20273;-70
2021/08/03 07:35:47;;;;;;;13.83;7.87;;;15.80;99.90;;;;;;5047275;28;20216;-70
2021/08/03 07:38:15;;;;;;;9.20;7.90;;;15.80;99.90;;;;;;5024691;28;20182;-70
2021/08/03 07:40:43;;;;;;;11.23;7.73;;;15.80;99.90;;;;;;5043568;28;20220;-69
2021/08/03 07:43:12;;;;;;;9.97;7.90;;;16.00;99.90;;;;;;5042104;28;20177;-70
2021/08/03 07:45:40;;;;;;;11.00;6.97;;;16.20;99.90;;;;;;5042504;28;20340;-69
2021/08/03 07:48:10;;;;;;;9.93;7.03;;;16.30;99.90;;;;;;5042324;28;20200;-70
2021/08/03 07:50:39;;;;;;;8.97;6.97;;;16.50;99.90;;;;;;5042677;28;20184;-69
2021/08/03 07:53:07;;;;;;;9.20;6.47;;;16.70;99.90;;;;;;5041238;28;20480;-69
2021/08/03 07:55:36;;;;;;;7.53;6.70;;;17.10;99.90;;;;;;5041044;28;20193;-69
2021/08/03 07:58:04;;;;;;;9.90;7.07;;;17.60;99.90;;;;;;5044187;28;20177;-70
2021/08/03 08:00:33;;;;;;;9.33;6.57;;;18.40;99.90;;;;;;5045026;28;20190;-69
2021/08/03 08:03:01;;;;;;;10.73;6.60;;;18.50;99.90;;;;;;5041964;28;20502;-70
2021/08/03 08:05:30;;;;;;;7.50;5.93;;;19.10;99.90;;;;;;5019110;28;20213;-70
2021/08/03 08:08:00;;;;;;;7.73;5.83;;;19.30;99.90;;;;;;5043061;28;20197;-70
2021/08/03 08:10:28;;;;;;;5.03;4.43;;;19.30;99.90;;;;;;5043055;28;20356;-70
2021/08/03 08:12:56;;;;;;;7.90;5.77;;;19.70;99.90;;;;;;5044193;28;20182;-69
2021/08/03 08:15:25;;;;;;;5.73;5.10;;;19.80;99.90;;;;;;5046267;28;20383;-71
2021/08/03 08:17:54;;;;;;;5.80;5.20;;;19.70;99.90;;;;;;5051990;28;20176;-70
2021/08/03 08:20:22;;;;;;;5.47;4.80;;;20.10;99.90;;;;;;5045969;28;20178;-70
2021/08/03 08:22:50;;;;;;;9.17;5.30;;;20.10;99.90;;;;;;5054844;28;20320;-70
2021/08/03 08:25:20;;;;;;;6.03;5.30;;;20.80;99.90;;;;;;5052168;28;20357;-70
2021/08/03 08:27:48;;;;;;;8.60;5.47;;;21.30;99.90;;;;;;5024932;28;20209;-70
2021/08/03 08:30:16;;;;;;;6.13;4.93;;;21.20;99.90;;;;;;5042014;28;20181;-71
2021/08/03 08:32:45;;;;;;;9.52;5.72;;;20.80;99.90;;;;;;5041571;28;20189;-69
2021/08/03 08:35:33;;;;;;;5.87;5.27;;;21.50;99.90;;;;;;5037030;28;20441;-70
2021/08/03 08:38:02;;;;;;;6.65;5.97;;;21.80;99.90;;;;;;5041358;28;20314;-70
2021/08/03 08:40:32;;;;;;;5.97;5.40;;;21.80;99.90;;;;;;5042152;28;20427;-68
2021/08/03 08:43:00;;;;;;;7.00;5.55;;;21.60;99.90;;;;;;5024805;28;20174;-70
2021/08/03 08:45:30;;;;;;;6.32;5.47;;;21.60;99.90;;;;;;5036982;28;20188;-71
2021/08/03 08:47:59;;;;;;;9.45;6.60;;;21.90;99.90;;;;;;5044128;28;20181;-70
2021/08/03 08:50:29;;;;;;;11.20;6.78;;;22.50;99.90;;;;;;5040318;28;20479;-70
2021/08/03 08:52:58;;;;;;;8.38;7.05;;;23.00;99.90;;;;;;5038668;28;20301;-70
2021/08/03 08:55:26;;;;;;;9.87;7.30;;;23.00;99.90;;;;;;5038037;28;20201;-70
2021/08/03 08:57:56;;;;;;;7.80;7.00;;;22.50;99.90;;;;;;5039045;28;20368;-70
2021/08/03 09:00:25;;;;;;;7.20;5.70;;;22.50;99.90;;;;;;5039162;28;20177;-70
2021/08/03 09:02:56;;;;;;;6.87;5.90;;;22.80;99.90;;;;;;5040819;28;20188;-69
2021/08/03 09:05:33;;;;;;;6.70;5.80;;;22.40;99.90;;;;;;5040415;28;20186;-69
2021/08/03 09:08:03;;;;;;;8.27;5.07;;;22.50;99.90;;;;;;5041313;28;20364;-69
2021/08/03 09:10:34;;;;;;;7.10;5.03;;;22.60;99.90;;;;;;5039549;28;20178;-70
2021/08/03 09:13:08;;;;;;;5.60;5.10;;;22.80;99.90;;;;;;5023573;28;20258;-69
2021/08/03 09:15:39;;;;;;;5.63;5.15;;;23.10;99.90;;;;;;5039735;28;20204;-70
2021/08/03 09:18:14;;;;;;;6.10;5.53;;;23.70;99.90;;;;;;5039098;28;20187;-70
2021/08/03 09:20:43;;;;;;;5.60;5.15;;;24.20;99.90;;;;;;5040833;28;20191;-70
2021/08/03 09:23:11;;;;;;;8.70;5.30;;;24.10;99.90;;;;;;5039622;28;20184;-70
2021/08/03 09:25:51;;;;;;;5.55;4.93;;;24.70;99.90;;;;;;5042049;28;20174;-71
2021/08/03 09:28:21;;;;;;;6.93;3.92;;;25.10;99.90;;;;;;5038117;28;20173;-71
2021/08/03 09:30:49;;;;;;;4.70;4.38;;;25.40;99.90;;;;;;5036655;28;20197;-69
2021/08/03 09:33:27;;;;;;;4.88;4.45;;;25.90;99.90;;;;;;5043893;28;20203;-71
2021/08/03 09:35:56;;;;;;;4.63;4.10;;;26.10;99.90;;;;;;5051849;28;20376;-71
2021/08/03 09:38:26;;;;;;;5.53;3.88;;;26.40;99.90;;;;;;5058061;28;20324;-71
2021/08/03 09:41:08;;;;;;;4.28;3.88;;;26.00;99.90;;;;;;5044320;28;20197;-70
2021/08/03 09:43:39;;;;;;;4.55;4.25;;;26.00;99.90;;;;;;5040017;28;20242;-71
2021/08/03 09:46:07;;;;;;;4.05;3.70;;;25.90;99.90;;;;;;5060312;28;20242;-71
2021/08/03 09:48:39;;;;;;;5.50;4.35;;;25.70;99.90;;;;;;5052198;28;20179;-70
2021/08/03 09:51:09;;;;;;;4.45;4.05;;;26.40;99.90;;;;;;5052814;28;20192;-70
2021/08/03 09:53:47;;;;;;;4.95;4.15;;;27.10;99.90;;;;;;5052341;28;20436;-70
2021/08/03 09:56:18;;;;;;;3.70;3.40;;;27.80;99.90;;;;;;5055649;28;20443;-71
2021/08/03 09:58:56;;;;;;;6.40;3.70;;;28.20;99.90;;;;;;5056029;28;20218;-71
2021/08/03 10:01:29;;;;;;;7.30;4.22;;;27.80;99.90;;;;;;5059300;28;20226;-71
2021/08/03 10:04:01;;;;;;;3.85;3.55;;;27.20;99.90;;;;;;5049555;28;20440;-71
2021/08/03 10:06:29;;;;;;;3.80;3.47;;;26.10;99.90;;;;;;5048195;28;20195;-71
2021/08/03 10:08:58;;;;;;;6.25;4.18;;;25.10;99.90;;;;;;5038624;28;20196;-70
2021/08/03 10:11:27;;;;;;;4.43;4.10;;;25.00;99.90;;;;;;5048945;28;20182;-71
2021/08/03 10:13:58;;;;;;;4.25;3.80;;;26.00;99.90;;;;;;5033390;28;20185;-71
2021/08/03 10:16:27;;;;;;;4.22;3.88;;;26.70;99.90;;;;;;5049897;28;20202;-71
2021/08/03 10:18:58;;;;;;;4.18;3.90;;;27.20;99.90;;;;;;5052696;28;20371;-70
2021/08/03 10:21:31;;;;;;;5.15;4.00;;;26.90;99.90;;;;;;5019161;28;20401;-71
2021/08/03 10:24:04;;;;;;;5.00;3.58;;;26.90;99.90;;;;;;5040702;28;20178;-71
2021/08/03 10:26:32;;;;;;;4.40;3.97;;;26.90;99.90;;;;;;5051671;28;20328;-70
2021/08/03 10:29:27;;;;;;;4.90;4.10;;;27.40;99.90;;;;;;5046722;28;20215;-71
2021/08/03 10:31:55;;;;;;;7.32;4.60;;;27.50;99.90;;;;;;5053970;28;20193;-71
2021/08/03 10:35:00;;;;;;;5.10;4.22;;;27.70;99.90;;;;;;5059255;28;20207;-71
2021/08/03 10:38:01;;;;;;;5.40;4.25;;;27.80;99.90;;;;;;5054468;28;20245;-71
2021/08/03 10:41:03;;;;;;;5.85;3.78;;;27.90;99.90;;;;;;5054068;28;20257;-71
2021/08/03 10:43:51;;;;;;;5.60;4.10;;;28.00;99.90;;;;;;5032480;28;20190;-71
2021/08/03 10:46:38;;;;;;;3.83;3.53;;;28.30;99.90;;;;;;5043361;28;20427;-71
2021/08/03 10:49:08;;;;;;;4.15;3.40;;;28.20;99.90;;;;;;5066020;28;20255;-70
2021/08/03 10:51:45;;;;;;;6.85;4.38;;;27.40;99.90;;;;;;5049396;28;20220;-70
2021/08/03 10:54:16;;;;;;;4.32;3.92;;;27.00;99.90;;;;;;5048223;28;20519;-71
2021/08/03 10:57:21;;;;;;;4.63;3.88;;;26.70;99.90;;;;;;5041710;28;20185;-71
2021/08/03 11:00:01;;;;;;;5.40;3.42;;;26.70;99.90;;;;;;5024897;28;20188;-71
2021/08/03 11:02:49;;;;;;;4.60;3.75;;;26.00;99.90;;;;;;5057902;28;20206;-71
2021/08/03 11:05:33;;;;;;;4.45;4.05;;;25.80;99.90;;;;;;5055638;28;20183;-71
2021/08/03 11:08:41;;;;;;;3.70;3.40;;;25.80;99.90;;;;;;5053268;28;20190;-71
2021/08/03 11:11:12;;;;;;;3.17;2.88;;;26.10;99.90;;;;;;5061977;28;20218;-71
2021/08/03 11:13:46;;;;;;;3.00;2.78;;;26.80;99.90;;;;;;5040897;28;20181;-71
2021/08/03 11:16:45;;;;;;;3.22;2.90;;;27.00;99.90;;;;;;5047744;28;20195;-71
2021/08/03 11:19:34;;;;;;;3.63;3.40;;;27.00;99.90;;;;;;5050895;28;20178;-71
2021/08/03 11:22:05;;;;;;;4.85;3.17;;;26.00;99.90;;;;;;5051863;28;20178;-70
2021/08/03 11:24:42;;;;;;;4.78;3.42;;;25.40;99.90;;;;;;5065428;28;20182;-71
2021/08/03 11:27:11;;;;;;;3.20;2.85;;;25.20;99.90;;;;;;5060509;28;20628;-71
2021/08/03 11:29:41;;;;;;;2.85;2.65;;;25.10;99.90;;;;;;5032072;28;20179;-71
2021/08/03 11:32:19;;;;;;;3.42;2.60;;;25.10;99.90;;;;;;5041427;28;20177;-71
2021/08/03 11:34:55;;;;;;;2.80;2.60;;;25.00;99.90;;;;;;5062586;28;20201;-71
2021/08/03 11:37:24;;;;;;;2.83;2.25;;;25.00;99.90;;;;;;5038623;28;20436;-71
2021/08/03 11:39:54;;;;;;;3.08;2.70;;;25.50;99.90;;;;;;5048420;28;20227;-71
2021/08/03 11:42:37;;;;;;;2.30;2.20;;;26.00;99.90;;;;;;5054896;28;20181;-71
2021/08/03 11:45:12;;;;;;;2.70;2.50;;;25.90;99.90;;;;;;5026376;28;20261;-71
2021/08/03 11:47:44;;;;;;;3.33;2.67;;;26.00;99.90;;;;;;5054598;28;20186;-70
2021/08/03 11:50:16;;;;;;;5.55;3.15;;;26.10;99.90;;;;;;5053277;28;20291;-71
2021/08/03 11:52:45;;;;;;;3.25;2.95;;;25.80;99.90;;;;;;5050888;28;20244;-71
2021/08/03 11:55:15;;;;;;;3.00;2.80;;;25.50;99.90;;;;;;5054606;28;20200;-71
2021/08/03 11:57:50;;;;;;;3.90;2.90;;;25.30;99.90;;;;;;5059638;28;20192;-71
2021/08/03 12:00:21;;;;;;;4.47;2.50;;;25.00;99.90;;;;;;5056742;28;20259;-71
2021/08/03 12:02:54;;;;;;;3.07;2.70;;;24.70;99.90;;;;;;5055691;28;20192;-71
2021/08/03 12:05:31;;;;;;;2.83;2.63;;;24.60;99.90;;;;;;5046674;28;20424;-71
2021/08/03 12:08:03;;;;;;;4.47;3.40;;;24.50;99.90;;;;;;5041675;28;20189;-71
2021/08/03 12:10:33;;;;;;;3.93;3.40;;;24.20;99.90;;;;;;5042497;28;20185;-71
2021/08/03 12:13:02;;;;;;;5.13;3.67;;;24.00;99.90;;;;;;5041878;28;20181;-70
2021/08/03 12:15:43;;;;;;;3.40;3.20;;;23.80;99.90;;;;;;5061045;28;20490;-71
2021/08/03 12:18:11;;;;;;;4.53;3.67;;;23.90;99.90;;;;;;5058368;28;20179;-71
2021/08/03 12:20:51;;;;;;;6.50;3.13;;;23.80;99.90;;;;;;5014003;28;20186;-70
2021/08/03 12:23:22;;;;;;;4.20;3.67;;;23.80;99.90;;;;;;5045878;28;20192;-70
2021/08/03 12:25:59;;;;;;;3.57;3.37;;;23.60;99.90;;;;;;5059656;28;20180;-71
2021/08/03 12:28:39;;;;;;;3.70;3.50;;;23.50;99.90;;;;;;5031712;28;20182;-71
2021/08/03 12:31:27;;;;;;;4.00;3.70;;;23.50;99.90;;;;;;5028285;28;20185;-71
2021/08/03 12:34:10;;;;;;;3.77;3.30;;;23.40;99.90;;;;;;5042140;28;20316;-71
2021/08/03 12:36:45;;;;;;;3.47;3.20;;;23.40;99.90;;;;;;5061325;28;20211;-71
2021/08/03 12:39:20;;;;;;;5.20;3.60;;;23.40;99.90;;;;;;5045670;28;20260;-71
2021/08/03 12:42:09;;;;;;;3.93;3.53;;;23.40;99.90;;;;;;5057323;28;20229;-71
2021/08/03 12:44:40;;;;;;;3.30;3.20;;;23.60;99.90;;;;;;5059907;28;20365;-71
2021/08/03 12:47:11;;;;;;;4.30;3.50;;;23.40;99.90;;;;;;5058789;28;20431;-71
2021/08/03 12:49:41;;;;;;;5.60;4.20;;;23.30;99.90;;;;;;5032964;28;20206;-71
2021/08/03 12:52:13;;;;;;;5.10;4.30;;;23.10;99.90;;;;;;5033414;28;20242;-70
2021/08/03 12:54:43;;;;;;;4.50;3.50;;;23.00;99.90;;;;;;5056790;28;20421;-68
2021/08/03 12:57:12;;;;;;;5.63;3.93;;;23.00;99.90;;;;;;5043370;28;20648;-71
2021/08/03 12:59:43;;;;;;;6.37;4.73;;;22.90;99.90;;;;;;5061043;28;20259;-71
2021/08/03 13:02:14;;;;;;;4.43;4.13;;;22.90;99.90;;;;;;5055750;28;20182;-70
2021/08/03 13:04:44;;;;;;;4.30;3.70;;;22.80;99.90;;;;;;5058529;28;20183;-70
2021/08/03 13:07:17;;;;;;;4.47;4.00;;;22.80;99.90;;;;;;5039552;28;20182;-71